Time;durP1;ratioP1;P1;durP2;ratioP2;P2;SDS_P1;SDS_P2;PMS_P1;PMS_P2;Temp;Humidity;BMP_temperature;BMP_pressure;BME280_temperature;BME280_humidity;BME280_pressure;Samples;Min_cycle;Max_cycle;Signal;HPM_P1;HPM_P2
2023/03/01 00:01:54;;;;;;;125.60;9.00;;;;;;;;;;5082669;28;20058;-65
2023/03/01 00:04:20;;;;;;;81.80;7.95;;;;;;;;;;5080424;28;20166;-65
2023/03/01 00:06:47;;;;;;;32.88;6.43;;;;;;;;;;5102549;28;20035;-65
2023/03/01 00:09:14;;;;;;;54.08;8.02;;;;;;;;;;5105240;28;20763;-66
2023/03/01 00:11:40;;;;;;;173.80;11.05;;;;;;;;;;5100172;28;20323;-66
2023/03/01 00:14:06;;;;;;;107.95;9.13;;;;;;;;;;5100465;28;20039;-66
2023/03/01 00:16:35;;;;;;;138.18;10.65;;;;;;;;;;5080647;28;20048;-66
2023/03/01 00:19:01;;;;;;;184.85;15.55;;;;;;;;;;5101141;28;20044;-66
2023/03/01 00:21:28;;;;;;;19.10;10.20;;;;;;;;;;5098179;28;20058;-66
2023/03/01 00:23:54;;;;;;;21.15;9.27;;;;;;;;;;5100641;28;20104;-66
2023/03/01 00:26:21;;;;;;;13.55;9.18;;;;;;;;;;5100434;28;20114;-66
2023/03/01 00:28:48;;;;;;;11.38;7.85;;;;;;;;;;5098642;28;20059;-66
2023/03/01 00:31:16;;;;;;;10.95;7.22;;;;;;;;;;5098885;28;20066;-66
2023/03/01 00:33:42;;;;;;;11.52;7.18;;;;;;;;;;5102747;28;20036;-66
2023/03/01 00:36:09;;;;;;;11.63;7.90;;;;;;;;;;5084331;28;21204;-66
2023/03/01 00:38:36;;;;;;;11.75;7.35;;;;;;;;;;5100869;28;20040;-66
2023/03/01 00:41:05;;;;;;;13.45;7.72;;;;;;;;;;5094621;28;20052;-66
2023/03/01 00:43:36;;;;;;;25.20;8.65;;;;;;;;;;5101871;28;20482;-66
2023/03/01 00:46:03;;;;;;;33.45;11.30;;;;;;;;;;5070415;28;20051;-65
2023/03/01 00:48:29;;;;;;;24.63;10.95;;;;;;;;;;5084777;28;20124;-65
2023/03/01 00:50:55;;;;;;;43.33;11.55;;;;;;;;;;5100421;28;20039;-65
2023/03/01 00:53:21;;;;;;;28.02;12.00;;;;;;;;;;5098264;28;20090;-65
2023/03/01 00:55:48;;;;;;;21.67;11.00;;;;;;;;;;5081607;28;20038;-65
2023/03/01 00:58:14;;;;;;;16.98;10.07;;;;;;;;;;5101805;28;20078;-65
2023/03/01 01:00:40;;;;;;;103.10;12.15;;;;;;;;;;5082118;28;20101;-65
2023/03/01 01:03:06;;;;;;;113.03;13.40;;;;;;;;;;5099224;28;20130;-65
2023/03/01 01:05:34;;;;;;;196.95;15.68;;;;;;;;;;5099236;28;20048;-65
2023/03/01 01:08:01;;;;;;;153.65;12.75;;;;;;;;;;5082894;28;20520;-66
2023/03/01 01:10:27;;;;;;;182.52;15.90;;;;;;;;;;5099695;28;20097;-65
2023/03/01 01:12:53;;;;;;;268.88;17.20;;;;;;;;;;5098543;28;20035;-65
2023/03/01 01:15:19;;;;;;;197.07;16.90;;;;;;;;;;5078808;28;20040;-65
2023/03/01 01:17:45;;;;;;;177.60;16.20;;;;;;;;;;5101211;28;20076;-65
2023/03/01 01:20:12;;;;;;;73.20;12.07;;;;;;;;;;5099650;28;20127;-65
2023/03/01 01:22:38;;;;;;;161.00;15.68;;;;;;;;;;5096002;28;20054;-66
2023/03/01 01:25:04;;;;;;;182.00;17.92;;;;;;;;;;5098743;28;20470;-66
2023/03/01 01:27:30;;;;;;;214.00;18.80;;;;;;;;;;5080420;28;20173;-66
2023/03/01 01:29:57;;;;;;;88.88;15.00;;;;;;;;;;5099589;28;20043;-66
2023/03/01 01:32:23;;;;;;;111.57;13.77;;;;;;;;;;5098577;28;20168;-66
2023/03/01 01:34:49;;;;;;;143.05;13.90;;;;;;;;;;5098628;28;20035;-66
2023/03/01 01:37:15;;;;;;;107.82;13.77;;;;;;;;;;5099984;28;20048;-66
2023/03/01 01:39:41;;;;;;;91.47;11.75;;;;;;;;;;5081402;28;20126;-66
2023/03/01 01:42:13;;;;;;;89.05;11.13;;;;;;;;;;5096435;28;20138;-66
2023/03/01 01:44:40;;;;;;;123.78;12.38;;;;;;;;;;5096462;28;20439;-65
2023/03/01 01:47:08;;;;;;;115.40;10.63;;;;;;;;;;5098087;28;20031;-66
2023/03/01 01:49:42;;;;;;;199.63;14.10;;;;;;;;;;5083593;28;20062;-66
2023/03/01 01:52:08;;;;;;;174.30;10.98;;;;;;;;;;5102859;28;20031;-66
2023/03/01 01:54:40;;;;;;;201.13;12.98;;;;;;;;;;5083730;28;20048;-66
2023/03/01 01:57:09;;;;;;;111.03;12.02;;;;;;;;;;5086440;28;20052;-66
2023/03/01 01:59:35;;;;;;;109.95;12.75;;;;;;;;;;5101853;28;20070;-65
2023/03/01 02:02:03;;;;;;;133.93;11.73;;;;;;;;;;5101778;28;20130;-65
2023/03/01 02:04:31;;;;;;;161.20;12.48;;;;;;;;;;5099012;28;20192;-65
2023/03/01 02:07:01;;;;;;;117.13;11.90;;;;;;;;;;5102573;28;20059;-65
2023/03/01 02:09:28;;;;;;;106.47;11.85;;;;;;;;;;5082125;28;20043;-66
2023/03/01 02:11:54;;;;;;;191.93;14.57;;;;;;;;;;5098323;28;20051;-66
2023/03/01 02:14:20;;;;;;;198.23;14.25;;;;;;;;;;5104191;28;20039;-66
2023/03/01 02:16:47;;;;;;;98.95;12.50;;;;;;;;;;5103899;28;20558;-66
2023/03/01 02:19:29;;;;;;;220.40;15.80;;;;;;;;;;5104084;28;20035;-66
2023/03/01 02:22:11;;;;;;;144.68;13.85;;;;;;;;;;5084155;28;20068;-66
2023/03/01 02:24:50;;;;;;;147.57;15.60;;;;;;;;;;5085789;28;20043;-66
2023/03/01 02:27:17;;;;;;;243.77;16.92;;;;;;;;;;5079553;28;20070;-66
2023/03/01 02:29:43;;;;;;;206.45;14.23;;;;;;;;;;5081395;28;20134;-66
2023/03/01 02:32:11;;;;;;;174.98;12.80;;;;;;;;;;5083963;28;20043;-66
2023/03/01 02:34:38;;;;;;;197.80;13.57;;;;;;;;;;5104861;28;20051;-66
2023/03/01 02:37:07;;;;;;;224.32;14.00;;;;;;;;;;5103828;28;20044;-66
2023/03/01 02:39:37;;;;;;;230.70;14.45;;;;;;;;;;5075778;28;20052;-66
2023/03/01 02:42:04;;;;;;;481.00;22.70;;;;;;;;;;5082276;28;20079;-65
2023/03/01 02:44:30;;;;;;;437.30;21.13;;;;;;;;;;5082850;28;20085;-66
2023/03/01 02:46:57;;;;;;;383.05;19.88;;;;;;;;;;5081791;28;20123;-66
2023/03/01 02:49:24;;;;;;;297.05;15.27;;;;;;;;;;5081508;28;20129;-66
2023/03/01 02:52:06;;;;;;;151.60;10.98;;;;;;;;;;5079692;28;20067;-66
2023/03/01 02:54:37;;;;;;;111.43;8.55;;;;;;;;;;5084147;28;20040;-66
2023/03/01 02:57:03;;;;;;;144.27;10.57;;;;;;;;;;5081688;28;20509;-66
2023/03/01 02:59:32;;;;;;;106.68;8.60;;;;;;;;;;5081230;28;20044;-65
2023/03/01 03:01:58;;;;;;;62.13;7.43;;;;;;;;;;5082585;28;20036;-66
2023/03/01 03:04:24;;;;;;;61.92;7.03;;;;;;;;;;5081501;28;20056;-66
2023/03/01 03:06:51;;;;;;;82.45;8.05;;;;;;;;;;5080094;28;20059;-65
2023/03/01 03:09:17;;;;;;;72.25;8.27;;;;;;;;;;5077691;28;20051;-66
2023/03/01 03:11:44;;;;;;;24.15;6.57;;;;;;;;;;5083286;28;20044;-66
2023/03/01 03:14:12;;;;;;;35.63;6.40;;;;;;;;;;5080834;28;20044;-66
2023/03/01 03:16:42;;;;;;;19.88;5.88;;;;;;;;;;5080307;28;20055;-66
2023/03/01 03:19:08;;;;;;;40.45;7.60;;;;;;;;;;5061128;28;20090;-66
2023/03/01 03:21:35;;;;;;;20.92;6.47;;;;;;;;;;5081241;28;20126;-66
2023/03/01 03:24:01;;;;;;;15.60;6.13;;;;;;;;;;5082151;28;20464;-66
2023/03/01 03:26:28;;;;;;;17.35;6.47;;;;;;;;;;5079158;28;20052;-65
2023/03/01 03:28:54;;;;;;;28.38;6.05;;;;;;;;;;5080583;28;20055;-65
2023/03/01 03:31:20;;;;;;;52.33;6.32;;;;;;;;;;5079435;28;20079;-65
2023/03/01 03:33:46;;;;;;;80.18;7.35;;;;;;;;;;5079436;28;20437;-66
2023/03/01 03:36:17;;;;;;;58.28;7.43;;;;;;;;;;5080133;28;20044;-66
2023/03/01 03:38:45;;;;;;;198.85;11.25;;;;;;;;;;5079498;28;20754;-66
2023/03/01 03:41:12;;;;;;;207.98;12.50;;;;;;;;;;5099303;28;20074;-65
2023/03/01 03:43:40;;;;;;;220.93;11.90;;;;;;;;;;5078452;28;20048;-66
2023/03/01 03:46:06;;;;;;;192.82;11.35;;;;;;;;;;5100330;28;20130;-66
2023/03/01 03:48:34;;;;;;;158.45;10.52;;;;;;;;;;5079691;28;20076;-66
2023/03/01 03:51:01;;;;;;;171.13;10.13;;;;;;;;;;5084025;28;20517;-66
2023/03/01 03:53:28;;;;;;;191.75;10.20;;;;;;;;;;5082439;28;20080;-65
2023/03/01 03:55:55;;;;;;;186.27;10.25;;;;;;;;;;5080973;28;20104;-65
2023/03/01 03:58:22;;;;;;;100.93;7.72;;;;;;;;;;5081084;28;20123;-65
2023/03/01 04:00:49;;;;;;;69.97;6.57;;;;;;;;;;5081980;28;20040;-65
2023/03/01 04:03:17;;;;;;;44.75;6.72;;;;;;;;;;5104604;28;20510;-66
2023/03/01 04:05:43;;;;;;;35.22;6.25;;;;;;;;;;5085121;28;20486;-66
2023/03/01 04:08:09;;;;;;;18.60;5.88;;;;;;;;;;5102985;28;20040;-66
2023/03/01 04:10:37;;;;;;;22.50;5.68;;;;;;;;;;5099622;28;20478;-66
2023/03/01 04:13:04;;;;;;;8.85;5.75;;;;;;;;;;5084609;28;20054;-65
2023/03/01 04:15:32;;;;;;;9.85;5.88;;;;;;;;;;5100376;28;20039;-66
2023/03/01 04:17:58;;;;;;;15.63;6.32;;;;;;;;;;5081378;28;20497;-66
2023/03/01 04:20:26;;;;;;;25.08;6.35;;;;;;;;;;5099475;28;20040;-65
2023/03/01 04:22:53;;;;;;;13.15;6.00;;;;;;;;;;5098536;28;20040;-66
2023/03/01 04:25:19;;;;;;;121.13;10.15;;;;;;;;;;5096464;28;20057;-66
2023/03/01 04:27:45;;;;;;;98.13;8.68;;;;;;;;;;5099180;28;20036;-66
2023/03/01 04:30:12;;;;;;;83.65;8.02;;;;;;;;;;5082727;28;20047;-65
2023/03/01 04:32:38;;;;;;;37.88;6.97;;;;;;;;;;5101019;28;20044;-66
2023/03/01 04:35:04;;;;;;;9.10;5.85;;;;;;;;;;5082669;28;20047;-66
2023/03/01 04:37:30;;;;;;;11.82;6.72;;;;;;;;;;5098497;28;20062;-66
2023/03/01 04:39:57;;;;;;;10.93;6.18;;;;;;;;;;5081306;28;20807;-66
2023/03/01 04:42:23;;;;;;;17.73;6.68;;;;;;;;;;5080986;28;20104;-65
2023/03/01 04:44:51;;;;;;;9.75;6.07;;;;;;;;;;5077799;28;20048;-66
2023/03/01 04:47:17;;;;;;;10.98;6.97;;;;;;;;;;5099130;28;20106;-65
2023/03/01 04:49:43;;;;;;;13.93;7.40;;;;;;;;;;5098148;28;20038;-65
2023/03/01 04:52:10;;;;;;;12.38;6.95;;;;;;;;;;5081324;28;20385;-66
2023/03/01 04:54:36;;;;;;;12.05;7.50;;;;;;;;;;5078694;28;20048;-64
2023/03/01 04:57:03;;;;;;;14.98;7.32;;;;;;;;;;5099148;28;20048;-65
2023/03/01 04:59:29;;;;;;;11.48;7.32;;;;;;;;;;5080811;28;20035;-65
2023/03/01 05:01:56;;;;;;;11.65;6.85;;;;;;;;;;5099092;28;20502;-65
2023/03/01 05:04:23;;;;;;;35.90;8.20;;;;;;;;;;5097973;28;20058;-65
2023/03/01 05:06:49;;;;;;;15.70;6.93;;;;;;;;;;5098947;28;20134;-65
2023/03/01 05:09:15;;;;;;;14.48;8.52;;;;;;;;;;5084031;28;20433;-65
2023/03/01 05:11:41;;;;;;;11.55;7.22;;;;;;;;;;5102782;28;20516;-65
2023/03/01 05:14:08;;;;;;;22.45;8.45;;;;;;;;;;5102686;28;20127;-65
2023/03/01 05:16:36;;;;;;;20.20;8.43;;;;;;;;;;5103770;28;20027;-65
2023/03/01 05:19:11;;;;;;;11.70;7.28;;;;;;;;;;5104905;28;20112;-66
2023/03/01 05:24:23;;;;;;;12.07;7.30;;;;;;;;;;5085232;28;20040;-65
2023/03/01 05:26:49;;;;;;;10.90;7.03;;;;;;;;;;5105622;28;20651;-65
2023/03/01 05:29:18;;;;;;;12.38;7.45;;;;;;;;;;5105266;28;20061;-65
2023/03/01 05:31:45;;;;;;;9.95;6.50;;;;;;;;;;5087025;28;20495;-65
2023/03/01 05:34:12;;;;;;;10.55;6.07;;;;;;;;;;5102613;28;20036;-65
2023/03/01 05:36:39;;;;;;;10.77;7.15;;;;;;;;;;5103451;28;20052;-65
2023/03/01 05:39:05;;;;;;;11.85;7.07;;;;;;;;;;5086099;28;20169;-65
2023/03/01 05:41:31;;;;;;;11.40;7.35;;;;;;;;;;5102607;28;20056;-65
2023/03/01 05:43:57;;;;;;;53.38;9.55;;;;;;;;;;5103680;28;20047;-65
2023/03/01 05:46:24;;;;;;;54.83;9.55;;;;;;;;;;5104557;28;20724;-65
2023/03/01 05:48:50;;;;;;;82.32;11.23;;;;;;;;;;5067636;28;20048;-65
2023/03/01 05:51:17;;;;;;;77.30;9.50;;;;;;;;;;5104262;28;20035;-65
2023/03/01 05:53:43;;;;;;;66.18;10.82;;;;;;;;;;5106019;28;20055;-66
2023/03/01 05:56:10;;;;;;;18.80;9.25;;;;;;;;;;5084284;28;20675;-65
2023/03/01 05:58:38;;;;;;;19.60;9.23;;;;;;;;;;5096194;28;20076;-65
2023/03/01 06:01:04;;;;;;;15.88;8.57;;;;;;;;;;5083732;28;20086;-65
2023/03/01 06:03:30;;;;;;;17.30;9.63;;;;;;;;;;5098136;28;20050;-66
2023/03/01 06:05:57;;;;;;;14.98;8.77;;;;;;;;;;5099701;28;20112;-66
2023/03/01 06:08:26;;;;;;;12.82;8.48;;;;;;;;;;5097598;28;20044;-66
2023/03/01 06:10:53;;;;;;;15.25;7.88;;;;;;;;;;5078639;28;20487;-66
2023/03/01 06:13:19;;;;;;;16.08;8.30;;;;;;;;;;5079128;28;20051;-66
2023/03/01 06:15:45;;;;;;;15.32;8.85;;;;;;;;;;5080144;28;21391;-66
2023/03/01 06:18:11;;;;;;;15.23;8.70;;;;;;;;;;5062333;28;20070;-66
2023/03/01 06:20:37;;;;;;;16.00;8.75;;;;;;;;;;5080247;28;20089;-66
2023/03/01 06:23:04;;;;;;;17.05;9.38;;;;;;;;;;5100210;28;20066;-63
2023/03/01 06:25:30;;;;;;;15.77;8.90;;;;;;;;;;5095901;28;20149;-66
2023/03/01 06:27:56;;;;;;;15.07;8.27;;;;;;;;;;5082489;28;20543;-66
2023/03/01 06:30:24;;;;;;;13.98;8.15;;;;;;;;;;5079316;28;20081;-84
2023/03/01 06:32:51;;;;;;;13.85;8.30;;;;;;;;;;5101663;28;20126;-66
2023/03/01 06:35:18;;;;;;;14.38;7.90;;;;;;;;;;5104414;28;20048;-66
2023/03/01 06:37:45;;;;;;;14.18;8.32;;;;;;;;;;5105307;28;20039;-65
2023/03/01 06:40:11;;;;;;;17.20;8.07;;;;;;;;;;5104475;28;20047;-65
2023/03/01 06:42:38;;;;;;;13.40;7.82;;;;;;;;;;5106127;28;20416;-66
2023/03/01 06:45:05;;;;;;;18.55;8.82;;;;;;;;;;5103136;28;20055;-66
2023/03/01 06:47:32;;;;;;;13.70;7.53;;;;;;;;;;5101920;28;20043;-65
2023/03/01 06:49:59;;;;;;;16.73;7.65;;;;;;;;;;5103741;28;20043;-65
2023/03/01 06:52:25;;;;;;;15.68;8.38;;;;;;;;;;5101523;28;20551;-66
2023/03/01 06:54:51;;;;;;;15.20;8.30;;;;;;;;;;5103443;28;20126;-66
2023/03/01 06:57:18;;;;;;;15.07;8.20;;;;;;;;;;5103759;28;20121;-65
2023/03/01 06:59:44;;;;;;;14.30;7.97;;;;;;;;;;5101498;28;20131;-66
2023/03/01 07:02:12;;;;;;;16.52;8.30;;;;;;;;;;5104167;28;20131;-66
2023/03/01 07:04:38;;;;;;;16.38;8.82;;;;;;;;;;5108704;28;20501;-65
2023/03/01 07:07:04;;;;;;;22.70;10.75;;;;;;;;;;5101303;28;20040;-65
2023/03/01 07:09:31;;;;;;;23.00;10.02;;;;;;;;;;5107484;28;20039;-66
2023/03/01 07:11:57;;;;;;;45.78;10.90;;;;;;;;;;5101248;28;20047;-66
2023/03/01 07:14:25;;;;;;;87.20;11.75;;;;;;;;;;5100941;28;20123;-66
2023/03/01 07:16:52;;;;;;;71.68;11.98;;;;;;;;;;5100026;28;20399;-65
2023/03/01 07:19:18;;;;;;;93.22;14.65;;;;;;;;;;5083911;28;20131;-65
2023/03/01 07:21:44;;;;;;;73.03;12.02;;;;;;;;;;5105951;28;21018;-66
2023/03/01 07:24:10;;;;;;;69.40;12.30;;;;;;;;;;5109908;28;20047;-66
2023/03/01 07:26:37;;;;;;;79.72;11.90;;;;;;;;;;5107987;28;20040;-65
2023/03/01 07:29:04;;;;;;;51.88;11.68;;;;;;;;;;5112114;28;20043;-66
2023/03/01 07:31:30;;;;;;;40.08;11.57;;;;;;;;;;5115459;27;20430;-67
2023/03/01 07:33:57;;;;;;;28.30;10.43;;;;;;;;;;5104723;28;20441;-67
2023/03/01 07:36:23;;;;;;;41.85;10.98;;;;;;;;;;5112222;28;20082;-66
2023/03/01 07:38:49;;;;;;;18.05;10.88;;;;;;;;;;5114782;28;20430;-67
2023/03/01 07:41:15;;;;;;;21.52;9.70;;;;;;;;;;5102418;28;20218;-66
2023/03/01 07:43:42;;;;;;;16.90;9.55;;;;;;;;;;5099123;28;20050;-66
2023/03/01 07:46:08;;;;;;;14.55;8.93;;;;;;;;;;5103531;28;20043;-66
2023/03/01 07:48:34;;;;;;;15.80;9.75;;;;;;;;;;5101565;28;20035;-66
2023/03/01 07:51:01;;;;;;;19.25;9.57;;;;;;;;;;5093528;28;20043;-66
2023/03/01 07:53:27;;;;;;;13.13;8.40;;;;;;;;;;5110296;28;20092;-65
2023/03/01 07:56:03;;;;;;;13.07;8.27;;;;;;;;;;5108781;28;20081;-66
2023/03/01 07:58:29;;;;;;;11.02;7.80;;;;;;;;;;5104991;28;20066;-66
2023/03/01 08:00:55;;;;;;;11.32;7.55;;;;;;;;;;5107736;28;20039;-66
2023/03/01 08:03:22;;;;;;;11.77;8.00;;;;;;;;;;5105987;28;20043;-66
2023/03/01 08:05:48;;;;;;;10.50;7.47;;;;;;;;;;5106721;28;20383;-66
2023/03/01 08:08:14;;;;;;;10.48;6.57;;;;;;;;;;5106715;28;20081;-67
2023/03/01 08:10:40;;;;;;;9.68;6.57;;;;;;;;;;5086791;28;20051;-67
2023/03/01 08:13:06;;;;;;;11.00;7.45;;;;;;;;;;5104928;28;20142;-67
2023/03/01 08:15:32;;;;;;;11.07;7.00;;;;;;;;;;5105675;28;20055;-67
2023/03/01 08:17:59;;;;;;;9.60;6.50;;;;;;;;;;5088091;28;20096;-66
2023/03/01 08:20:25;;;;;;;10.73;7.30;;;;;;;;;;5087085;28;20050;-66
2023/03/01 08:22:51;;;;;;;12.23;8.38;;;;;;;;;;5102385;28;20043;-66
2023/03/01 08:25:17;;;;;;;11.52;7.47;;;;;;;;;;5103979;28;20324;-66
2023/03/01 08:27:43;;;;;;;10.70;7.35;;;;;;;;;;5100838;28;20043;-66
2023/03/01 08:30:10;;;;;;;11.68;6.88;;;;;;;;;;5104949;28;20035;-66
2023/03/01 08:32:37;;;;;;;11.35;7.68;;;;;;;;;;5088070;28;20051;-66
2023/03/01 08:35:04;;;;;;;11.35;7.95;;;;;;;;;;5100404;28;20200;-67
2023/03/01 08:37:32;;;;;;;11.50;7.82;;;;;;;;;;5091941;28;20082;-66
2023/03/01 08:40:00;;;;;;;12.35;9.00;;;;;;;;;;5103972;28;20471;-66
2023/03/01 08:42:26;;;;;;;13.88;9.48;;;;;;;;;;5106836;28;20082;-66
2023/03/01 08:44:52;;;;;;;13.95;9.48;;;;;;;;;;5104791;28;20458;-66
2023/03/01 08:47:18;;;;;;;15.35;9.90;;;;;;;;;;5087561;28;20172;-66
2023/03/01 08:49:45;;;;;;;13.43;9.55;;;;;;;;;;5106217;28;20082;-66
2023/03/01 08:52:11;;;;;;;13.18;9.52;;;;;;;;;;5102283;28;20044;-66
2023/03/01 08:54:37;;;;;;;15.82;10.75;;;;;;;;;;5107672;28;20050;-66
2023/03/01 08:57:03;;;;;;;14.18;10.32;;;;;;;;;;5102382;28;20130;-66
2023/03/01 08:59:29;;;;;;;15.23;11.00;;;;;;;;;;5107596;28;20042;-65
2023/03/01 09:01:56;;;;;;;15.48;10.70;;;;;;;;;;5070988;28;21405;-66
2023/03/01 09:04:22;;;;;;;16.80;11.07;;;;;;;;;;5104472;28;20043;-66
2023/03/01 09:06:48;;;;;;;16.67;11.35;;;;;;;;;;5106983;28;20043;-64
2023/03/01 09:09:15;;;;;;;17.58;12.70;;;;;;;;;;5106025;28;20124;-66
2023/03/01 09:11:43;;;;;;;17.33;11.73;;;;;;;;;;5104462;28;20145;-65
2023/03/01 09:14:09;;;;;;;21.95;12.80;;;;;;;;;;5103112;28;20506;-67
2023/03/01 09:16:35;;;;;;;18.98;13.00;;;;;;;;;;5103183;28;20040;-65
2023/03/01 09:19:02;;;;;;;18.85;12.68;;;;;;;;;;5102449;28;20053;-66
2023/03/01 09:21:29;;;;;;;18.17;12.85;;;;;;;;;;5101632;28;20063;-67
2023/03/01 09:23:56;;;;;;;20.67;14.20;;;;;;;;;;5096644;28;20101;-67
2023/03/01 09:26:22;;;;;;;19.17;13.07;;;;;;;;;;5101414;28;20036;-67
2023/03/01 09:28:50;;;;;;;18.92;12.60;;;;;;;;;;5104542;28;20673;-67
2023/03/01 09:31:17;;;;;;;20.42;13.88;;;;;;;;;;5105341;28;20062;-67
2023/03/01 09:33:46;;;;;;;20.40;13.25;;;;;;;;;;5104042;28;20083;-77
2023/03/01 09:38:38;;;;;;;22.17;13.40;;;;;;;;;;5099601;28;20051;-67
2023/03/01 09:41:10;;;;;;;20.38;12.93;;;;;;;;;;5101332;28;20070;-67
2023/03/01 09:43:47;;;;;;;19.73;11.43;;;;;;;;;;5103306;28;20075;-67
2023/03/01 09:46:16;;;;;;;20.20;14.40;;;;;;;;;;5102190;28;20051;-67
2023/03/01 09:48:44;;;;;;;19.92;13.30;;;;;;;;;;5082921;28;20432;-67
2023/03/01 09:51:15;;;;;;;18.65;13.70;;;;;;;;;;5102914;28;20050;-67
2023/03/01 09:53:42;;;;;;;19.08;13.18;;;;;;;;;;5102987;28;20036;-67
2023/03/01 09:56:19;;;;;;;20.23;13.48;;;;;;;;;;5085701;28;20043;-67
2023/03/01 09:58:56;;;;;;;17.52;12.45;;;;;;;;;;5107186;28;20116;-67
2023/03/01 10:01:31;;;;;;;19.77;13.55;;;;;;;;;;5107494;28;20134;-67
2023/03/01 10:04:25;;;;;;;18.98;11.48;;;;;;;;;;5103761;28;20040;-67
2023/03/01 10:06:56;;;;;;;19.70;12.68;;;;;;;;;;5109458;28;20188;-67
2023/03/01 10:09:22;;;;;;;19.10;12.20;;;;;;;;;;5101167;28;20043;-67
2023/03/01 10:11:52;;;;;;;18.63;12.57;;;;;;;;;;5087752;28;20406;-67
2023/03/01 10:14:30;;;;;;;18.85;12.30;;;;;;;;;;5107427;28;20078;-67
2023/03/01 10:17:02;;;;;;;19.45;12.43;;;;;;;;;;5102451;28;20100;-67
2023/03/01 10:19:28;;;;;;;18.70;12.80;;;;;;;;;;5105775;28;20183;-67
2023/03/01 10:21:55;;;;;;;23.92;13.65;;;;;;;;;;5104780;28;20031;-67
2023/03/01 10:24:21;;;;;;;22.42;14.13;;;;;;;;;;5101623;28;20036;-67
2023/03/01 10:26:57;;;;;;;22.85;14.07;;;;;;;;;;5102296;28;20043;-68
2023/03/01 10:29:27;;;;;;;31.70;16.10;;;;;;;;;;5102992;28;20058;-68
2023/03/01 10:31:54;;;;;;;24.20;15.30;;;;;;;;;;5108748;28;20043;-66
2023/03/01 10:34:22;;;;;;;29.50;15.85;;;;;;;;;;5105547;28;20044;-66
2023/03/01 10:36:51;;;;;;;24.38;14.02;;;;;;;;;;5111071;28;20046;-66
2023/03/01 10:39:19;;;;;;;22.10;13.32;;;;;;;;;;5112298;28;20035;-70
2023/03/01 10:41:55;;;;;;;21.63;14.40;;;;;;;;;;5091525;28;20067;-68
2023/03/01 10:44:36;;;;;;;20.88;14.38;;;;;;;;;;5094193;28;20043;-72
2023/03/01 10:47:02;;;;;;;18.45;13.02;;;;;;;;;;5111865;28;20111;-71
2023/03/01 10:49:28;;;;;;;21.58;14.98;;;;;;;;;;5113305;28;20339;-68
2023/03/01 10:51:54;;;;;;;22.92;15.27;;;;;;;;;;5109683;28;20118;-67
2023/03/01 10:54:28;;;;;;;23.42;15.02;;;;;;;;;;5093184;28;20051;-69
2023/03/01 10:56:56;;;;;;;21.38;15.02;;;;;;;;;;5111064;28;20036;-68
2023/03/01 10:59:29;;;;;;;19.85;14.55;;;;;;;;;;5110864;28;20067;-68
2023/03/01 11:02:04;;;;;;;24.75;16.33;;;;;;;;;;5104647;28;20579;-68
2023/03/01 11:04:30;;;;;;;22.67;14.50;;;;;;;;;;5089149;28;20112;-68
2023/03/01 11:06:59;;;;;;;23.83;15.38;;;;;;;;;;5087664;28;20446;-68
2023/03/01 11:09:27;;;;;;;27.90;16.02;;;;;;;;;;5107210;28;20040;-81
2023/03/01 11:12:00;;;;;;;21.45;15.05;;;;;;;;;;5106753;28;20379;-69
2023/03/01 11:14:28;;;;;;;22.50;14.77;;;;;;;;;;5107332;28;20497;-81
2023/03/01 11:16:59;;;;;;;24.65;14.82;;;;;;;;;;5090117;28;20048;-73
2023/03/01 11:19:26;;;;;;;18.83;13.40;;;;;;;;;;5086465;28;20040;-74
2023/03/01 11:21:58;;;;;;;21.30;13.55;;;;;;;;;;5106544;28;20062;-73
2023/03/01 11:24:29;;;;;;;20.27;14.27;;;;;;;;;;5105452;28;20052;-68
2023/03/01 11:26:55;;;;;;;20.42;12.73;;;;;;;;;;5104869;28;20085;-66
2023/03/01 11:29:28;;;;;;;17.58;12.40;;;;;;;;;;5105051;28;20111;-67
2023/03/01 11:31:57;;;;;;;16.88;12.95;;;;;;;;;;5086660;28;20051;-66
2023/03/01 11:34:28;;;;;;;23.85;14.02;;;;;;;;;;5107660;28;20055;-66
2023/03/01 11:36:59;;;;;;;19.60;13.32;;;;;;;;;;5111764;28;20046;-67
2023/03/01 11:39:34;;;;;;;21.35;13.68;;;;;;;;;;5107199;28;20055;-67
2023/03/01 11:42:07;;;;;;;22.20;14.43;;;;;;;;;;5110393;28;20131;-67
2023/03/01 11:44:35;;;;;;;16.55;12.75;;;;;;;;;;5110771;28;20071;-86
2023/03/01 11:47:01;;;;;;;16.48;11.85;;;;;;;;;;5107731;28;20490;-67
2023/03/01 11:49:43;;;;;;;14.73;11.80;;;;;;;;;;5109812;28;20072;-67
2023/03/01 11:52:16;;;;;;;21.38;13.70;;;;;;;;;;5106509;28;20054;-67
2023/03/01 11:54:48;;;;;;;19.55;12.45;;;;;;;;;;5110263;28;20111;-67
2023/03/01 11:57:21;;;;;;;16.10;11.85;;;;;;;;;;5110373;28;20039;-67
2023/03/01 12:00:09;;;;;;;16.05;12.32;;;;;;;;;;5092025;28;20032;-67
2023/03/01 12:02:47;;;;;;;15.88;12.38;;;;;;;;;;5099157;28;20141;-67
2023/03/01 12:05:21;;;;;;;15.60;12.70;;;;;;;;;;5102187;28;20051;-67
2023/03/01 12:07:54;;;;;;;15.80;12.55;;;;;;;;;;5088869;28;20108;-67
2023/03/01 12:10:23;;;;;;;16.00;12.05;;;;;;;;;;5088528;28;20054;-67
2023/03/01 12:13:04;;;;;;;21.20;12.45;;;;;;;;;;5102581;28;20055;-67
2023/03/01 12:15:36;;;;;;;15.95;12.32;;;;;;;;;;5081305;28;20260;-67
2023/03/01 12:18:09;;;;;;;14.70;11.45;;;;;;;;;;5102283;28;20040;-67
2023/03/01 12:20:36;;;;;;;15.70;11.82;;;;;;;;;;5083931;28;20122;-67
2023/03/01 12:23:16;;;;;;;14.73;11.70;;;;;;;;;;5098734;28;20043;-67
2023/03/01 12:25:49;;;;;;;14.70;11.88;;;;;;;;;;5101930;28;20077;-67
2023/03/01 12:28:32;;;;;;;15.25;12.35;;;;;;;;;;5082377;28;20052;-67
2023/03/01 12:31:14;;;;;;;15.77;12.35;;;;;;;;;;5101361;28;20424;-68
2023/03/01 12:33:40;;;;;;;17.67;13.23;;;;;;;;;;5101152;28;20404;-67
2023/03/01 12:36:16;;;;;;;15.50;11.93;;;;;;;;;;5103831;28;20101;-67
2023/03/01 12:38:43;;;;;;;14.65;11.48;;;;;;;;;;5103566;28;20659;-67
2023/03/01 12:41:12;;;;;;;13.80;10.68;;;;;;;;;;5098259;28;20416;-67
2023/03/01 12:43:46;;;;;;;15.70;11.15;;;;;;;;;;5099123;28;20546;-67
2023/03/01 12:46:33;;;;;;;14.82;11.15;;;;;;;;;;5100605;28;20044;-67
2023/03/01 12:49:02;;;;;;;12.55;9.80;;;;;;;;;;5100378;28;20040;-73
2023/03/01 12:51:30;;;;;;;14.95;11.45;;;;;;;;;;5096754;28;20115;-66
2023/03/01 12:53:58;;;;;;;14.73;11.23;;;;;;;;;;5079702;28;20032;-79
2023/03/01 12:56:25;;;;;;;13.85;11.00;;;;;;;;;;5065458;28;20359;-79
2023/03/01 12:58:58;;;;;;;13.80;10.70;;;;;;;;;;5079924;28;20399;-67
2023/03/01 13:01:30;;;;;;;15.38;10.52;;;;;;;;;;5100576;28;20513;-68
2023/03/01 13:04:04;;;;;;;13.88;10.90;;;;;;;;;;5101044;28;20059;-67
2023/03/01 13:06:37;;;;;;;13.05;10.52;;;;;;;;;;5101701;28;20051;-67
2023/03/01 13:09:06;;;;;;;12.15;10.18;;;;;;;;;;5106160;28;20044;-67
2023/03/01 13:11:34;;;;;;;13.13;10.60;;;;;;;;;;5104513;28;20040;-67
2023/03/01 13:14:19;;;;;;;14.48;11.27;;;;;;;;;;5084264;28;20113;-67
2023/03/01 13:16:48;;;;;;;15.32;11.48;;;;;;;;;;5084699;28;20031;-67
2023/03/01 13:19:17;;;;;;;15.18;11.77;;;;;;;;;;5090122;28;20437;-65
2023/03/01 13:21:44;;;;;;;16.92;12.95;;;;;;;;;;5109137;28;20127;-67
2023/03/01 13:24:29;;;;;;;13.85;11.10;;;;;;;;;;5108816;28;20538;-67
2023/03/01 13:27:19;;;;;;;15.18;12.68;;;;;;;;;;5088988;28;20123;-85
2023/03/01 13:29:47;;;;;;;14.77;11.93;;;;;;;;;;5111675;28;20550;-66
2023/03/01 13:32:20;;;;;;;15.57;12.35;;;;;;;;;;5112218;28;20048;-67
2023/03/01 13:34:46;;;;;;;;;;;;;;;;;;5113609;28;20047;-66
2023/03/01 13:37:20;;;;;;;17.15;13.38;;;;;;;;;;5089144;28;19973;-67
2023/03/01 13:39:46;;;;;;;;;;;;;;;;;;5106272;28;20044;-68
2023/03/01 13:42:31;;;;;;;15.80;11.57;;;;;;;;;;5106225;28;20362;-67
2023/03/01 13:44:58;;;;;;;13.70;10.63;;;;;;;;;;5101784;28;20043;-66
2023/03/01 13:47:24;;;;;;;16.25;11.73;;;;;;;;;;5103763;28;20118;-66
2023/03/01 13:49:57;;;;;;;13.35;11.40;;;;;;;;;;5103377;28;20473;-66
2023/03/01 13:52:32;;;;;;;15.77;11.90;;;;;;;;;;5104663;28;20043;-66
2023/03/01 13:55:01;;;;;;;15.65;10.10;;;;;;;;;;5088588;28;20044;-67
2023/03/01 13:57:30;;;;;;;16.92;11.95;;;;;;;;;;5088328;28;20133;-67
2023/03/01 13:59:57;;;;;;;17.15;11.98;;;;;;;;;;5107850;28;20043;-66
2023/03/01 14:02:23;;;;;;;18.58;11.57;;;;;;;;;;5089609;28;20390;-66
2023/03/01 14:04:57;;;;;;;12.73;10.75;;;;;;;;;;5108523;28;20050;-67
2023/03/01 14:07:24;;;;;;;14.45;10.32;;;;;;;;;;5108259;28;20147;-65
2023/03/01 14:09:53;;;;;;;14.25;11.07;;;;;;;;;;5110684;28;20040;-66
2023/03/01 14:12:26;;;;;;;16.98;11.48;;;;;;;;;;5073623;28;20100;-65
2023/03/01 14:14:55;;;;;;;16.10;10.95;;;;;;;;;;5074935;28;20036;-66
2023/03/01 14:17:38;;;;;;;15.93;11.50;;;;;;;;;;5094364;28;20136;-65
2023/03/01 14:20:11;;;;;;;15.55;11.23;;;;;;;;;;5112117;28;20044;-66
2023/03/01 14:22:41;;;;;;;14.50;10.38;;;;;;;;;;5110030;28;20036;-65
2023/03/01 14:25:19;;;;;;;14.05;10.48;;;;;;;;;;5110823;28;20502;-66
2023/03/01 14:27:51;;;;;;;15.48;10.00;;;;;;;;;;5112349;28;20092;-66
2023/03/01 14:30:21;;;;;;;14.52;9.45;;;;;;;;;;5090158;28;20126;-66
2023/03/01 14:32:54;;;;;;;14.88;10.32;;;;;;;;;;5075482;28;20497;-65
2023/03/01 14:35:22;;;;;;;14.25;10.30;;;;;;;;;;5104885;28;20048;-66